Time;durP1;ratioP1;P1;durP2;ratioP2;P2;SDS_P1;SDS_P2;PMS_P1;PMS_P2;Temp;Humidity;BMP_temperature;BMP_pressure;BME280_temperature;BME280_humidity;BME280_pressure;Samples;Min_cycle;Max_cycle;Signal;HPM_P1;HPM_P2
2023/06/07 00:00:59;;;;;;;12.95;8.70;;;16.10;99.90;;;;;;4973398;28;20239;-86
2023/06/07 00:03:30;;;;;;;13.23;7.90;;;16.20;99.90;;;;;;4974699;28;20546;-79
2023/06/07 00:06:02;;;;;;;10.25;6.70;;;16.30;99.90;;;;;;4972873;28;20211;-78
2023/06/07 00:08:33;;;;;;;8.10;5.90;;;16.40;99.90;;;;;;4973102;28;20196;-79
2023/06/07 00:11:05;;;;;;;7.50;5.50;;;16.60;99.90;;;;;;4974613;28;20188;-88
2023/06/07 00:13:36;;;;;;;19.10;8.07;;;16.70;99.90;;;;;;4974574;28;20220;-83
2023/06/07 00:16:10;;;;;;;8.45;5.88;;;16.70;99.90;;;;;;4974634;28;20192;-88
2023/06/07 00:18:41;;;;;;;11.48;5.57;;;16.80;99.90;;;;;;4958963;28;20205;-79
2023/06/07 00:21:12;;;;;;;9.57;5.65;;;16.90;99.90;;;;;;4974359;28;20243;-90
2023/06/07 00:23:43;;;;;;;9.10;4.75;;;17.10;99.90;;;;;;4974563;28;20188;-86
2023/06/07 00:26:14;;;;;;;6.30;4.18;;;17.20;99.90;;;;;;4973096;28;20196;-81
2023/06/07 00:28:45;;;;;;;6.60;4.35;;;17.30;99.90;;;;;;4974108;28;20199;-86
2023/06/07 00:31:19;;;;;;;5.57;3.92;;;17.40;99.90;;;;;;4980847;28;20199;-83
2023/06/07 00:33:50;;;;;;;7.35;3.90;;;17.50;99.90;;;;;;4973882;28;20238;-82
2023/06/07 00:36:21;;;;;;;6.13;3.42;;;17.60;99.90;;;;;;4973645;28;20662;-79
2023/06/07 00:38:52;;;;;;;5.90;3.53;;;17.70;99.90;;;;;;4973722;28;20231;-77
2023/06/07 00:41:24;;;;;;;6.53;3.10;;;17.80;99.90;;;;;;4974424;28;20197;-79
2023/06/07 00:43:55;;;;;;;3.72;2.40;;;17.90;99.90;;;;;;4973722;28;20204;-84
2023/06/07 00:46:33;;;;;;;5.13;2.38;;;18.00;99.90;;;;;;4974679;28;20196;-84
2023/06/07 00:49:04;;;;;;;6.30;2.60;;;18.10;99.90;;;;;;4973375;28;20196;-79
2023/06/07 00:51:36;;;;;;;7.40;3.28;;;18.10;99.90;;;;;;4974007;28;20194;-81
2023/06/07 00:54:08;;;;;;;4.68;2.05;;;18.10;99.90;;;;;;4973385;28;20586;-82
2023/06/07 00:56:40;;;;;;;6.32;1.83;;;18.10;99.90;;;;;;4973027;28;20207;-84
2023/06/07 00:59:11;;;;;;;4.30;1.42;;;18.20;99.90;;;;;;4973173;28;20228;-84
2023/06/07 01:01:46;;;;;;;2.58;1.00;;;18.30;99.90;;;;;;4974184;28;20208;-85
2023/06/07 01:04:18;;;;;;;2.08;1.05;;;18.40;99.90;;;;;;4974431;28;20196;-82
2023/06/07 01:06:49;;;;;;;1.02;0.73;;;18.50;99.90;;;;;;4975629;28;20212;-86
2023/06/07 01:09:21;;;;;;;1.67;0.50;;;18.60;99.90;;;;;;4977348;28;20259;-81
2023/06/07 01:11:54;;;;;;;1.05;0.43;;;18.80;99.90;;;;;;4975908;28;20203;-87
2023/06/07 01:14:26;;;;;;;1.45;0.40;;;19.00;99.90;;;;;;4974412;28;20220;-87
2023/06/07 01:17:02;;;;;;;1.08;0.50;;;19.10;99.90;;;;;;4975240;28;20208;-84
2023/06/07 01:19:36;;;;;;;2.13;0.40;;;19.20;99.90;;;;;;4974718;28;20207;-82
2023/06/07 01:22:10;;;;;;;1.55;0.60;;;19.30;99.90;;;;;;4977733;28;20280;-85
2023/06/07 01:24:43;;;;;;;1.17;0.30;;;19.40;99.90;;;;;;4975038;28;20598;-86
2023/06/07 01:27:15;;;;;;;1.35;0.50;;;19.50;99.90;;;;;;4981222;28;20196;-83
2023/06/07 01:29:47;;;;;;;1.15;0.30;;;19.70;99.90;;;;;;4978846;28;20224;-80
2023/06/07 01:32:18;;;;;;;1.65;0.50;;;19.70;99.90;;;;;;4976549;28;20200;-85
2023/06/07 01:34:51;;;;;;;3.05;0.50;;;19.70;99.90;;;;;;4976278;28;20224;-85
2023/06/07 01:37:22;;;;;;;1.65;0.30;;;19.80;99.90;;;;;;4977690;28;20554;-87
2023/06/07 01:39:57;;;;;;;1.27;0.40;;;19.90;99.90;;;;;;4977334;28;20203;-79
2023/06/07 01:42:29;;;;;;;1.15;0.43;;;20.00;99.90;;;;;;4975057;28;20199;-85
2023/06/07 01:45:01;;;;;;;2.38;0.50;;;20.10;99.90;;;;;;4977433;28;20208;-85
2023/06/07 01:47:32;;;;;;;2.45;0.43;;;20.20;99.90;;;;;;4974772;28;20568;-84
2023/06/07 01:50:04;;;;;;;1.40;0.50;;;20.30;99.90;;;;;;4976887;28;20207;-87
2023/06/07 01:52:35;;;;;;;0.98;0.50;;;20.40;99.90;;;;;;4976328;28;20204;-77
2023/06/07 01:55:09;;;;;;;0.63;0.30;;;20.50;99.90;;;;;;4976861;28;20193;-88
2023/06/07 01:57:50;;;;;;;2.13;0.38;;;20.70;99.90;;;;;;4975206;28;20664;-80
2023/06/07 02:00:28;;;;;;;1.70;0.30;;;20.80;99.90;;;;;;4976408;28;20271;-85
2023/06/07 02:03:01;;;;;;;0.30;0.30;;;20.90;99.90;;;;;;4975286;28;20287;-87
2023/06/07 02:05:36;;;;;;;0.65;0.30;;;20.90;99.90;;;;;;4976125;28;20197;-81
2023/06/07 02:08:26;;;;;;;2.05;0.50;;;20.90;99.90;;;;;;4976184;28;20192;-85
2023/06/07 02:10:59;;;;;;;0.77;0.52;;;21.00;99.90;;;;;;4975899;28;20199;-85
2023/06/07 02:13:34;;;;;;;1.20;0.50;;;21.00;99.90;;;;;;4976208;28;20243;-84
2023/06/07 02:16:06;;;;;;;2.30;0.50;;;21.10;99.90;;;;;;4976890;28;20215;-86
2023/06/07 02:18:40;;;;;;;1.27;0.50;;;21.10;99.90;;;;;;4976636;28;20594;-86
2023/06/07 02:21:11;;;;;;;1.35;0.40;;;21.20;99.90;;;;;;4976774;28;20211;-82
2023/06/07 02:23:42;;;;;;;1.63;0.38;;;21.20;99.90;;;;;;4982327;28;20200;-84
2023/06/07 02:26:16;;;;;;;1.35;0.70;;;21.10;99.90;;;;;;4976010;28;22029;-85
2023/06/07 02:28:47;;;;;;;0.55;0.50;;;21.10;99.90;;;;;;4976314;28;20192;-83
2023/06/07 02:31:20;;;;;;;1.98;0.40;;;21.10;99.90;;;;;;4975734;28;20206;-94
2023/06/07 02:33:51;;;;;;;3.05;0.50;;;21.10;99.90;;;;;;4976105;28;20287;-84
2023/06/07 02:36:25;;;;;;;1.42;0.50;;;21.10;99.90;;;;;;4976375;28;20193;-87
2023/06/07 02:38:56;;;;;;;1.73;0.73;;;21.10;99.90;;;;;;4973423;28;20196;-83
2023/06/07 02:41:29;;;;;;;0.95;0.50;;;21.10;99.90;;;;;;4975400;28;20196;-92
2023/06/07 02:44:00;;;;;;;0.65;0.45;;;21.10;99.90;;;;;;4975955;28;20218;-86
2023/06/07 02:46:31;;;;;;;1.73;0.47;;;21.10;99.90;;;;;;4975725;28;20218;-83
2023/06/07 02:49:02;;;;;;;2.22;0.50;;;21.10;99.90;;;;;;4974641;28;20659;-82
2023/06/07 02:51:33;;;;;;;2.42;0.80;;;21.10;99.90;;;;;;4974523;28;20207;-80
2023/06/07 02:54:04;;;;;;;2.03;0.80;;;21.20;99.90;;;;;;4975785;28;20230;-85
2023/06/07 02:56:37;;;;;;;2.25;0.60;;;21.20;99.90;;;;;;4975846;28;20193;-83
2023/06/07 02:59:08;;;;;;;1.90;0.50;;;21.20;99.90;;;;;;4971857;28;20240;-90
2023/06/07 03:01:40;;;;;;;1.88;0.60;;;21.20;99.90;;;;;;4974381;28;20569;-82
2023/06/07 03:04:11;;;;;;;2.08;0.65;;;21.20;99.90;;;;;;4973741;28;20200;-83
2023/06/07 03:06:44;;;;;;;0.45;0.43;;;21.20;99.90;;;;;;4975920;28;20188;-84
2023/06/07 03:09:18;;;;;;;1.08;0.60;;;21.00;99.90;;;;;;4975503;28;20192;-84
2023/06/07 03:11:51;;;;;;;1.67;0.60;;;20.90;99.90;;;;;;4973556;28;20698;-78
2023/06/07 03:14:23;;;;;;;2.80;0.55;;;21.00;99.90;;;;;;4975219;28;20219;-86
2023/06/07 03:16:54;;;;;;;1.10;0.50;;;21.00;99.90;;;;;;4974565;28;20227;-85
2023/06/07 03:19:25;;;;;;;1.17;0.60;;;21.10;99.90;;;;;;4977824;28;20197;-82
2023/06/07 03:21:57;;;;;;;1.85;0.50;;;21.20;99.90;;;;;;4974165;28;20192;-79
2023/06/07 03:24:28;;;;;;;1.63;0.52;;;21.20;99.90;;;;;;4975351;28;20636;-87
2023/06/07 03:27:01;;;;;;;0.95;0.50;;;21.20;99.90;;;;;;4975591;28;20551;-85
2023/06/07 03:29:32;;;;;;;5.50;1.10;;;21.20;99.90;;;;;;4973800;28;20283;-82
2023/06/07 03:32:05;;;;;;;0.80;0.40;;;21.10;99.90;;;;;;4975164;28;20215;-88
2023/06/07 03:34:36;;;;;;;2.15;0.85;;;21.10;99.90;;;;;;4973505;28;20220;-85
2023/06/07 03:37:07;;;;;;;1.70;0.45;;;20.90;99.90;;;;;;4975154;28;20644;-84
2023/06/07 03:39:38;;;;;;;1.60;0.60;;;20.90;99.90;;;;;;4975188;28;20198;-85
2023/06/07 03:42:12;;;;;;;2.75;0.68;;;20.90;99.90;;;;;;4974614;28;20204;-84
2023/06/07 03:44:43;;;;;;;1.98;0.70;;;20.90;99.90;;;;;;4974378;28;20200;-82
2023/06/07 03:47:14;;;;;;;3.22;0.98;;;20.90;99.90;;;;;;4973969;28;20558;-86
2023/06/07 03:49:45;;;;;;;1.38;0.60;;;20.90;99.90;;;;;;4974089;28;20196;-83
2023/06/07 03:52:16;;;;;;;2.83;0.80;;;20.80;99.90;;;;;;4971522;28;20204;-86
2023/06/07 03:54:47;;;;;;;1.23;0.63;;;20.70;99.90;;;;;;4974804;28;20224;-81
2023/06/07 03:57:20;;;;;;;3.10;0.88;;;20.60;99.90;;;;;;4974828;28;20188;-84
2023/06/07 03:59:52;;;;;;;1.73;0.80;;;20.60;99.90;;;;;;4974457;28;20250;-83
2023/06/07 04:02:23;;;;;;;2.03;0.80;;;20.60;99.90;;;;;;4973134;28;20204;-81
2023/06/07 04:04:54;;;;;;;2.80;0.80;;;20.60;99.90;;;;;;4974357;28;20204;-85
2023/06/07 04:07:27;;;;;;;3.28;0.85;;;20.60;99.90;;;;;;4974647;28;20207;-91
2023/06/07 04:09:58;;;;;;;1.30;0.80;;;20.60;99.90;;;;;;4973897;28;20231;-86
2023/06/07 04:12:31;;;;;;;4.00;0.90;;;20.60;99.90;;;;;;4974164;28;20648;-83
2023/06/07 04:15:02;;;;;;;2.88;0.80;;;20.60;99.90;;;;;;4978261;28;20250;-84
2023/06/07 04:17:33;;;;;;;1.67;0.70;;;20.60;99.90;;;;;;4974074;28;20200;-93
2023/06/07 04:20:05;;;;;;;3.10;1.10;;;20.50;99.90;;;;;;4973898;28;20196;-79
2023/06/07 04:22:36;;;;;;;6.35;0.70;;;20.60;99.90;;;;;;4973239;28;20236;-84
2023/06/07 04:25:08;;;;;;;1.55;0.70;;;20.60;99.90;;;;;;4974276;28;20263;-86
2023/06/07 04:27:46;;;;;;;3.25;0.75;;;20.60;99.90;;;;;;4974383;28;20188;-93
2023/06/07 04:30:18;;;;;;;1.83;0.70;;;20.60;99.90;;;;;;4973623;28;20199;-84
2023/06/07 04:32:49;;;;;;;2.35;1.02;;;20.60;99.90;;;;;;4974442;28;20637;-84
2023/06/07 04:35:21;;;;;;;2.00;0.98;;;20.50;99.90;;;;;;4973767;28;20316;-87
2023/06/07 04:37:52;;;;;;;2.65;1.00;;;20.60;99.90;;;;;;4974030;28;20196;-80
2023/06/07 04:40:23;;;;;;;2.55;1.10;;;20.30;99.90;;;;;;4974770;28;20200;-84
2023/06/07 04:43:05;;;;;;;2.22;0.80;;;20.30;99.90;;;;;;4978094;28;20188;-86
2023/06/07 04:45:40;;;;;;;2.03;0.60;;;20.20;99.90;;;;;;4977565;28;20200;-85
2023/06/07 04:48:11;;;;;;;0.68;0.60;;;20.10;99.90;;;;;;4977337;28;20702;-82
2023/06/07 04:50:43;;;;;;;2.20;0.60;;;20.20;99.90;;;;;;4977354;28;20601;-85
2023/06/07 04:53:19;;;;;;;2.13;0.70;;;20.10;99.90;;;;;;4978124;28;20200;-86
2023/06/07 04:55:51;;;;;;;1.83;0.68;;;20.10;99.90;;;;;;4978064;28;20632;-86
2023/06/07 04:58:24;;;;;;;1.75;0.60;;;20.20;99.90;;;;;;4977894;28;20561;-86
2023/06/07 05:00:56;;;;;;;1.50;0.70;;;20.20;99.90;;;;;;4977805;28;20239;-86
2023/06/07 05:03:28;;;;;;;2.55;0.88;;;20.10;99.90;;;;;;4978214;28;20224;-86
2023/06/07 05:06:00;;;;;;;3.28;0.60;;;20.00;99.90;;;;;;4958791;28;20203;-85
2023/06/07 05:08:31;;;;;;;1.70;0.68;;;19.90;99.90;;;;;;4972429;28;20206;-85
2023/06/07 05:11:02;;;;;;;1.10;0.57;;;19.90;99.90;;;;;;4982066;28;20211;-87
2023/06/07 05:13:35;;;;;;;1.90;0.60;;;19.80;99.90;;;;;;4978209;28;20196;-84
2023/06/07 05:16:15;;;;;;;0.90;0.60;;;19.80;99.90;;;;;;4977752;28;20262;-89
2023/06/07 05:18:48;;;;;;;1.70;0.50;;;19.80;99.90;;;;;;4977364;28;20204;-86
2023/06/07 05:21:19;;;;;;;1.75;0.60;;;19.70;99.90;;;;;;4976881;28;20674;-87
2023/06/07 05:23:50;;;;;;;3.15;0.50;;;19.70;99.90;;;;;;4978103;28;20195;-83
2023/06/07 05:26:22;;;;;;;2.50;0.63;;;19.70;99.90;;;;;;4975840;28;20204;-85
2023/06/07 05:28:55;;;;;;;0.93;0.50;;;19.70;99.90;;;;;;4977284;28;20204;-85
2023/06/07 05:31:27;;;;;;;2.65;0.60;;;19.60;99.90;;;;;;4976673;28;20203;-83
2023/06/07 05:33:58;;;;;;;1.85;0.60;;;19.60;99.90;;;;;;4977520;28;20192;-90
2023/06/07 05:36:29;;;;;;;1.25;0.52;;;19.60;99.90;;;;;;4976650;28;20202;-85
2023/06/07 05:39:01;;;;;;;2.22;0.65;;;19.60;99.90;;;;;;4977722;28;20247;-84
2023/06/07 05:41:32;;;;;;;2.20;0.60;;;19.60;99.90;;;;;;4977173;28;20207;-86
2023/06/07 05:44:05;;;;;;;1.35;0.57;;;19.50;99.90;;;;;;4976322;28;20204;-80
2023/06/07 05:46:36;;;;;;;2.58;0.50;;;19.50;99.90;;;;;;4979408;28;20203;-84
2023/06/07 05:49:07;;;;;;;1.08;0.43;;;19.40;99.90;;;;;;4977672;28;20219;-79
2023/06/07 05:51:38;;;;;;;1.30;0.47;;;19.30;99.90;;;;;;4975940;28;20204;-83
2023/06/07 05:54:09;;;;;;;1.77;0.60;;;19.30;99.90;;;;;;4976921;28;20543;-85
2023/06/07 05:56:41;;;;;;;1.55;0.60;;;19.30;99.90;;;;;;4977118;28;20200;-85
2023/06/07 05:59:14;;;;;;;2.70;0.70;;;19.20;99.90;;;;;;4975519;28;20240;-85
2023/06/07 06:01:45;;;;;;;3.50;0.60;;;19.20;99.90;;;;;;4977585;28;20188;-78
2023/06/07 06:04:16;;;;;;;2.10;0.50;;;19.10;99.90;;;;;;4972330;28;20196;-80
2023/06/07 06:06:48;;;;;;;1.27;0.60;;;19.10;99.90;;;;;;4971490;28;20200;-76
2023/06/07 06:09:19;;;;;;;0.68;0.50;;;19.10;99.90;;;;;;4969979;28;20196;-82
2023/06/07 06:11:51;;;;;;;1.15;0.55;;;19.10;99.90;;;;;;4971950;28;20201;-84
2023/06/07 06:14:25;;;;;;;1.27;0.63;;;19.00;99.90;;;;;;4976466;28;20565;-82
2023/06/07 06:16:56;;;;;;;1.63;0.70;;;19.00;99.90;;;;;;4965974;28;20193;-79
2023/06/07 06:19:27;;;;;;;2.00;0.73;;;19.00;99.90;;;;;;4973240;28;20207;-84
2023/06/07 06:21:58;;;;;;;1.63;0.70;;;18.90;99.90;;;;;;4975548;28;20196;-77
2023/06/07 06:24:29;;;;;;;2.92;0.70;;;18.80;99.90;;;;;;4976160;28;20204;-83
2023/06/07 06:27:00;;;;;;;2.25;0.55;;;18.80;99.90;;;;;;4976450;28;20230;-84
2023/06/07 06:29:33;;;;;;;3.63;0.70;;;18.70;99.90;;;;;;4966823;28;20201;-76
2023/06/07 06:32:04;;;;;;;4.07;1.00;;;18.70;99.90;;;;;;4972033;28;20662;-85
2023/06/07 06:34:36;;;;;;;3.90;0.70;;;18.60;99.90;;;;;;4976286;28;20303;-77
2023/06/07 06:37:07;;;;;;;1.38;0.60;;;18.50;99.90;;;;;;4975129;28;20205;-80
2023/06/07 06:39:38;;;;;;;2.25;1.35;;;18.40;99.90;;;;;;4975069;28;20204;-77
2023/06/07 06:42:10;;;;;;;3.80;0.65;;;18.40;99.90;;;;;;4975883;28;20597;-79
2023/06/07 06:44:43;;;;;;;2.38;0.80;;;18.30;99.90;;;;;;4975742;28;20208;-78
2023/06/07 06:47:14;;;;;;;2.40;0.77;;;18.20;99.90;;;;;;4967294;28;20204;-80
2023/06/07 06:49:45;;;;;;;2.00;0.85;;;18.20;99.90;;;;;;4970927;28;20200;-84
2023/06/07 06:52:16;;;;;;;1.63;0.63;;;18.10;99.90;;;;;;4975763;28;20204;-78
2023/06/07 06:54:47;;;;;;;2.10;0.70;;;18.10;99.90;;;;;;4975867;28;20699;-83
2023/06/07 06:57:18;;;;;;;1.95;0.60;;;18.00;99.90;;;;;;4975093;28;20197;-84
2023/06/07 06:59:52;;;;;;;1.05;0.60;;;18.00;99.90;;;;;;4976330;28;20239;-78
2023/06/07 07:02:23;;;;;;;1.88;0.70;;;18.00;99.90;;;;;;4974924;28;20209;-84
2023/06/07 07:04:54;;;;;;;2.03;0.60;;;17.90;99.90;;;;;;4973517;28;20200;-85
2023/06/07 07:07:26;;;;;;;2.97;1.00;;;17.90;99.90;;;;;;4974696;28;20207;-84
2023/06/07 07:09:57;;;;;;;2.75;0.80;;;17.90;99.90;;;;;;4975476;28;20192;-78
2023/06/07 07:12:28;;;;;;;2.05;0.60;;;17.80;99.90;;;;;;4974222;28;20204;-86
2023/06/07 07:15:01;;;;;;;1.92;0.68;;;17.70;99.90;;;;;;4972802;28;20219;-80
2023/06/07 07:17:33;;;;;;;1.85;0.80;;;17.70;99.90;;;;;;4973430;28;20219;-84
2023/06/07 07:20:05;;;;;;;2.10;0.80;;;17.70;99.90;;;;;;4956040;28;20243;-84
2023/06/07 07:22:36;;;;;;;1.77;0.63;;;17.70;99.90;;;;;;4956077;28;20276;-84
2023/06/07 07:25:09;;;;;;;2.67;0.80;;;17.60;99.90;;;;;;4958439;28;20204;-77
2023/06/07 07:27:40;;;;;;;2.63;0.70;;;17.60;99.90;;;;;;4975412;28;20194;-85
2023/06/07 07:30:13;;;;;;;4.82;1.08;;;17.60;99.90;;;;;;4973217;28;20197;-84
2023/06/07 07:32:45;;;;;;;1.30;0.70;;;17.60;99.90;;;;;;4975036;28;20204;-78
2023/06/07 07:35:16;;;;;;;1.85;0.90;;;17.50;99.90;;;;;;4965228;28;20573;-84
2023/06/07 07:37:47;;;;;;;0.95;0.75;;;17.50;99.90;;;;;;4965178;28;20208;-82
2023/06/07 07:40:19;;;;;;;1.83;0.90;;;17.50;99.90;;;;;;4966026;28;20196;-83
2023/06/07 07:42:50;;;;;;;4.63;0.70;;;17.50;99.90;;;;;;4975116;28;20188;-82
2023/06/07 07:45:23;;;;;;;2.17;0.70;;;17.40;99.90;;;;;;4975292;28;20196;-84
2023/06/07 07:47:54;;;;;;;3.60;0.93;;;17.40;99.90;;;;;;4962520;28;20207;-84
2023/06/07 07:50:25;;;;;;;2.35;0.90;;;17.40;99.90;;;;;;4972040;28;20284;-81
2023/06/07 07:52:56;;;;;;;2.17;0.90;;;17.40;99.90;;;;;;4973330;28;20675;-79
2023/06/07 07:58:00;;;;;;;3.28;1.20;;;17.30;99.90;;;;;;4993803;23;20244;-77
2023/06/07 08:00:33;;;;;;;4.78;2.20;;;17.30;99.90;;;;;;4982502;28;20297;-78
2023/06/07 08:03:05;;;;;;;5.88;1.80;;;17.20;99.90;;;;;;4985060;28;20718;-76
2023/06/07 08:05:36;;;;;;;3.63;1.38;;;17.20;99.90;;;;;;4986873;28;20306;-78
2023/06/07 08:08:07;;;;;;;3.45;1.60;;;17.20;99.90;;;;;;4992356;28;20207;-90
2023/06/07 08:10:39;;;;;;;2.45;1.23;;;17.20;99.90;;;;;;4994294;28;20204;-80
2023/06/07 08:13:10;;;;;;;2.15;0.90;;;17.10;99.90;;;;;;4992567;28;20204;-90
2023/06/07 08:15:43;;;;;;;3.92;1.10;;;17.10;99.90;;;;;;4996919;28;20694;-80
2023/06/07 08:18:14;;;;;;;2.97;0.95;;;17.10;99.90;;;;;;4989900;28;20206;-76
2023/06/07 08:20:45;;;;;;;3.42;0.93;;;17.10;99.90;;;;;;4986484;28;20589;-77
2023/06/07 08:23:16;;;;;;;2.33;1.00;;;17.10;99.90;;;;;;4997837;28;20204;-76
2023/06/07 08:25:48;;;;;;;2.55;1.02;;;17.10;99.90;;;;;;4994625;28;20202;-76
2023/06/07 08:28:19;;;;;;;3.45;1.27;;;17.10;99.90;;;;;;4984008;28;20206;-79
2023/06/07 08:30:52;;;;;;;2.17;1.30;;;17.00;99.90;;;;;;4996175;28;20211;-76
2023/06/07 08:33:23;;;;;;;4.55;1.50;;;17.00;99.90;;;;;;4990380;28;20299;-76
2023/06/07 08:35:54;;;;;;;3.08;0.95;;;17.00;99.90;;;;;;4993524;28;20216;-76
2023/06/07 08:38:25;;;;;;;3.78;1.20;;;16.90;99.90;;;;;;4987521;28;20283;-77
2023/06/07 08:40:58;;;;;;;2.33;0.93;;;16.90;99.90;;;;;;4991195;28;20203;-82
2023/06/07 08:43:30;;;;;;;2.70;1.08;;;16.80;99.90;;;;;;4991961;28;20260;-82
2023/06/07 08:46:05;;;;;;;4.95;1.00;;;16.80;99.90;;;;;;4997712;28;20210;-76
2023/06/07 08:48:36;;;;;;;3.20;1.00;;;16.70;99.90;;;;;;4980148;28;20200;-75
2023/06/07 08:51:10;;;;;;;3.72;1.13;;;16.70;99.90;;;;;;4979488;28;20196;-76
2023/06/07 08:53:56;;;;;;;3.28;0.98;;;16.70;99.90;;;;;;4988919;28;20656;-89
2023/06/07 08:56:31;;;;;;;1.77;1.10;;;16.70;99.90;;;;;;4987875;28;20243;-76
2023/06/07 08:59:05;;;;;;;1.65;0.98;;;16.70;99.90;;;;;;4978139;28;20199;-78
2023/06/07 09:01:38;;;;;;;2.50;1.10;;;16.70;99.90;;;;;;4970782;28;20212;-80
2023/06/07 09:04:10;;;;;;;5.00;1.20;;;16.70;99.90;;;;;;4976927;28;20211;-80
2023/06/07 09:06:43;;;;;;;1.88;0.90;;;16.60;99.90;;;;;;4964671;28;20672;-79
2023/06/07 09:09:14;;;;;;;1.60;0.80;;;16.60;99.90;;;;;;4970463;28;20211;-79
2023/06/07 09:11:45;;;;;;;3.13;1.17;;;16.60;99.90;;;;;;4973359;28;20198;-89
2023/06/07 09:14:16;;;;;;;3.70;1.20;;;16.50;99.90;;;;;;4975067;28;20547;-81
2023/06/07 09:17:00;;;;;;;3.63;1.10;;;16.60;99.90;;;;;;4970781;28;20240;-79
2023/06/07 09:19:38;;;;;;;2.45;1.00;;;16.60;99.90;;;;;;4965600;28;20204;-76
2023/06/07 09:22:10;;;;;;;2.05;1.00;;;16.50;99.90;;;;;;4973909;28;20196;-82
2023/06/07 09:24:41;;;;;;;1.70;0.80;;;16.50;99.90;;;;;;4972409;28;20196;-87
2023/06/07 09:27:14;;;;;;;2.33;0.70;;;16.40;99.90;;;;;;4972593;28;20235;-76
2023/06/07 09:29:46;;;;;;;2.95;0.93;;;16.50;99.90;;;;;;4976579;28;20258;-77
2023/06/07 09:32:24;;;;;;;2.20;1.02;;;16.40;99.90;;;;;;4975013;28;20581;-76
2023/06/07 09:35:13;;;;;;;4.15;1.13;;;16.40;99.90;;;;;;4969922;28;20192;-79
2023/06/07 09:37:48;;;;;;;2.88;1.05;;;16.40;99.90;;;;;;4968446;28;20208;-86
2023/06/07 09:40:20;;;;;;;3.22;1.30;;;16.30;99.90;;;;;;4966099;28;20203;-84
2023/06/07 09:43:00;;;;;;;2.15;0.80;;;16.30;99.90;;;;;;4975964;28;20204;-79
2023/06/07 09:45:32;;;;;;;3.38;1.00;;;16.20;99.90;;;;;;4975168;28;20203;-76
2023/06/07 09:48:09;;;;;;;1.63;1.10;;;16.10;99.90;;;;;;4975942;28;20664;-83
2023/06/07 09:50:40;;;;;;;2.72;1.20;;;16.10;99.90;;;;;;4974802;28;20203;-80
2023/06/07 09:53:11;;;;;;;3.65;1.40;;;16.10;99.90;;;;;;4968701;28;20200;-87
2023/06/07 09:55:42;;;;;;;4.10;1.48;;;16.10;99.90;;;;;;4970207;28;20240;-86
2023/06/07 09:58:23;;;;;;;7.47;1.70;;;16.00;99.90;;;;;;4966822;28;20707;-76
2023/06/07 10:00:55;;;;;;;3.28;1.45;;;15.90;99.90;;;;;;4964367;28;20259;-81
2023/06/07 10:03:29;;;;;;;2.53;1.40;;;15.90;99.90;;;;;;4966149;28;20204;-75
2023/06/07 10:06:00;;;;;;;4.75;1.60;;;15.90;99.90;;;;;;4975736;28;20211;-79
2023/06/07 10:08:31;;;;;;;3.78;1.60;;;15.90;99.90;;;;;;4967874;28;20200;-76
2023/06/07 10:11:03;;;;;;;4.38;1.77;;;15.90;99.90;;;;;;4967997;28;20671;-79
2023/06/07 10:13:34;;;;;;;3.10;1.50;;;15.90;99.90;;;;;;4968722;28;20204;-75
2023/06/07 10:16:09;;;;;;;4.18;1.77;;;15.90;99.90;;;;;;4975159;28;20695;-88
2023/06/07 10:18:45;;;;;;;3.92;1.90;;;15.80;99.90;;;;;;4965251;28;20228;-76
2023/06/07 10:21:21;;;;;;;3.78;1.92;;;15.90;99.90;;;;;;4963711;28;20196;-75
2023/06/07 10:23:57;;;;;;;3.28;2.00;;;15.80;99.90;;;;;;4958625;28;20200;-76
2023/06/07 10:26:35;;;;;;;5.00;2.38;;;15.80;99.90;;;;;;4974259;28;20295;-75
2023/06/07 10:29:11;;;;;;;4.25;2.10;;;15.80;99.90;;;;;;4970167;28;20561;-80
2023/06/07 10:31:50;;;;;;;4.55;2.20;;;15.70;99.90;;;;;;4976012;28;20196;-76
2023/06/07 10:34:25;;;;;;;5.75;2.42;;;15.70;99.90;;;;;;4975379;28;20696;-76
2023/06/07 10:36:59;;;;;;;4.90;2.38;;;15.70;99.90;;;;;;4976341;28;20220;-77
2023/06/07 10:39:30;;;;;;;5.78;2.47;;;15.70;99.90;;;;;;4962491;28;20204;-76
2023/06/07 10:42:02;;;;;;;4.22;2.10;;;15.70;99.90;;;;;;4956704;28;20197;-76
2023/06/07 10:44:34;;;;;;;6.68;2.08;;;15.60;99.90;;;;;;4967123;28;20208;-75
2023/06/07 10:47:32;;;;;;;6.35;2.20;;;15.60;99.90;;;;;;4975269;28;20548;-77
2023/06/07 10:50:05;;;;;;;8.35;5.20;;;15.60;99.90;;;;;;4976642;28;20214;-75
2023/06/07 10:52:56;;;;;;;6.95;3.90;;;15.50;99.90;;;;;;4975926;28;20263;-75
2023/06/07 10:55:31;;;;;;;10.13;6.25;;;15.50;99.90;;;;;;4973478;28;20206;-75
2023/06/07 10:58:03;;;;;;;8.35;5.75;;;15.50;99.90;;;;;;4975699;28;20250;-78
2023/06/07 11:00:35;;;;;;;5.63;3.40;;;15.50;99.90;;;;;;4973673;28;20204;-75
2023/06/07 11:03:43;;;;;;;5.38;2.65;;;15.40;99.90;;;;;;4974837;28;20243;-76
2023/06/07 11:06:16;;;;;;;5.05;2.40;;;15.40;99.90;;;;;;4975051;28;20267;-75
2023/06/07 11:08:49;;;;;;;3.33;1.75;;;15.40;99.90;;;;;;4975733;28;20197;-77
2023/06/07 11:11:52;;;;;;;6.30;1.80;;;15.30;99.90;;;;;;4975542;28;20196;-82
2023/06/07 11:14:23;;;;;;;3.25;1.60;;;15.30;99.90;;;;;;4974574;28;20652;-75
2023/06/07 11:16:55;;;;;;;5.13;1.55;;;15.30;99.90;;;;;;4975470;28;20220;-75
2023/06/07 11:19:26;;;;;;;7.10;1.50;;;15.30;99.90;;;;;;4974943;28;20569;-77
2023/06/07 11:22:09;;;;;;;3.03;1.50;;;15.30;99.90;;;;;;4974329;28;20582;-76
2023/06/07 11:24:40;;;;;;;5.95;1.42;;;15.30;99.90;;;;;;4980149;28;20286;-75
2023/06/07 11:27:15;;;;;;;6.43;1.67;;;15.30;99.90;;;;;;4971409;28;20233;-75
2023/06/07 11:29:46;;;;;;;6.00;2.33;;;15.20;99.90;;;;;;4956186;28;20204;-76
2023/06/07 11:32:17;;;;;;;3.08;1.88;;;15.20;99.90;;;;;;4955983;28;20193;-75
2023/06/07 11:35:02;;;;;;;4.47;1.80;;;15.20;99.90;;;;;;4958901;28;20200;-75
2023/06/07 11:37:41;;;;;;;3.17;1.52;;;15.20;99.90;;;;;;4967386;28;20623;-77
2023/06/07 11:40:13;;;;;;;3.25;1.60;;;15.20;99.90;;;;;;4955832;28;20280;-77
2023/06/07 11:42:45;;;;;;;3.08;1.40;;;15.20;99.90;;;;;;4955674;28;20201;-76
2023/06/07 11:45:17;;;;;;;4.25;1.55;;;15.20;99.90;;;;;;4956541;29;20663;-75
2023/06/07 11:47:51;;;;;;;4.93;1.40;;;15.20;99.90;;;;;;4956008;28;20656;-82
2023/06/07 11:50:22;;;;;;;2.72;1.40;;;15.20;99.90;;;;;;4958986;28;20200;-75
2023/06/07 11:52:56;;;;;;;4.22;1.50;;;15.10;99.90;;;;;;4965778;28;20224;-78
2023/06/07 11:55:28;;;;;;;3.53;1.50;;;15.10;99.90;;;;;;4973642;28;20207;-75
2023/06/07 11:58:05;;;;;;;4.20;1.50;;;15.10;99.90;;;;;;4973020;28;20240;-75
2023/06/07 12:00:39;;;;;;;3.78;1.60;;;15.10;99.90;;;;;;4975138;28;20252;-74
2023/06/07 12:03:12;;;;;;;4.32;1.38;;;15.10;99.90;;;;;;4973917;28;20238;-75
2023/06/07 12:05:44;;;;;;;4.35;1.70;;;15.10;99.90;;;;;;4972799;28;20227;-82
2023/06/07 12:08:19;;;;;;;3.25;1.30;;;15.10;99.90;;;;;;4966601;28;20212;-83
2023/06/07 12:10:56;;;;;;;5.57;1.70;;;15.10;99.90;;;;;;4955609;28;20202;-77
2023/06/07 12:13:30;;;;;;;4.90;1.42;;;15.10;99.90;;;;;;4964489;28;20693;-86
2023/06/07 12:16:03;;;;;;;3.25;1.35;;;15.10;99.90;;;;;;4973854;28;20204;-77
2023/06/07 12:18:35;;;;;;;3.55;1.20;;;15.10;99.90;;;;;;4970193;28;20200;-77
2023/06/07 12:21:08;;;;;;;2.20;1.17;;;15.20;99.90;;;;;;4955713;28;20197;-86
2023/06/07 12:23:47;;;;;;;2.53;1.10;;;15.20;99.90;;;;;;4958019;28;20204;-81
2023/06/07 12:26:22;;;;;;;2.55;1.20;;;15.20;99.90;;;;;;4962158;28;20207;-85
2023/06/07 12:28:53;;;;;;;2.83;1.00;;;15.20;99.90;;;;;;4955072;28;20204;-75
2023/06/07 12:31:25;;;;;;;2.50;0.90;;;15.20;99.90;;;;;;4954933;28;20205;-78
2023/06/07 12:33:58;;;;;;;2.28;1.00;;;15.20;99.90;;;;;;4955808;28;20200;-81
2023/06/07 12:36:33;;;;;;;2.38;1.00;;;15.20;99.90;;;;;;4971324;28;20263;-75
2023/06/07 12:39:07;;;;;;;2.70;1.10;;;15.20;99.90;;;;;;4960754;28;20231;-75
2023/06/07 12:41:39;;;;;;;3.30;1.30;;;15.20;99.90;;;;;;4963261;28;20210;-76
2023/06/07 12:44:11;;;;;;;1.92;0.90;;;15.20;99.90;;;;;;4967150;28;20205;-83
2023/06/07 12:46:42;;;;;;;3.13;1.20;;;15.30;99.90;;;;;;4965479;28;20212;-75
2023/06/07 12:49:13;;;;;;;3.38;1.10;;;15.30;99.90;;;;;;4973071;28;20204;-76
2023/06/07 12:51:45;;;;;;;4.68;1.02;;;15.30;99.90;;;;;;4972333;28;20204;-81
2023/06/07 12:54:18;;;;;;;2.72;0.93;;;15.40;99.90;;;;;;4964783;28;20197;-77
2023/06/07 12:56:49;;;;;;;3.47;1.10;;;15.30;99.90;;;;;;4972758;28;20247;-76
2023/06/07 12:59:21;;;;;;;2.35;0.90;;;15.40;99.90;;;;;;4970456;28;20200;-76
2023/06/07 13:01:52;;;;;;;3.50;0.93;;;15.40;99.90;;;;;;4963259;28;20233;-76
2023/06/07 13:04:23;;;;;;;5.70;1.02;;;15.40;99.90;;;;;;4973336;28;20698;-76
2023/06/07 13:06:55;;;;;;;2.13;0.90;;;15.40;99.90;;;;;;4974161;28;20205;-78
2023/06/07 13:09:28;;;;;;;3.40;1.10;;;15.30;99.90;;;;;;4971332;28;20207;-76
2023/06/07 13:12:02;;;;;;;3.10;1.10;;;15.30;99.90;;;;;;4963553;28;20644;-78
2023/06/07 13:14:34;;;;;;;3.28;1.00;;;15.30;99.90;;;;;;4961372;28;20188;-76
2023/06/07 13:17:05;;;;;;;3.30;1.00;;;15.20;99.90;;;;;;4959659;28;20217;-77